createdAt,value
2019-03-20T00:02:07.770Z,-0.73
2019-03-20T00:04:34.440Z,-0.80
2019-03-20T00:07:01.234Z,-0.88
2019-03-20T00:09:27.803Z,-0.95
2019-03-20T00:11:54.770Z,-0.96
2019-03-20T00:14:21.463Z,-1.02
2019-03-20T00:16:48.158Z,-1.07
2019-03-20T00:19:14.861Z,-1.13
2019-03-20T00:21:41.640Z,-1.18
2019-03-20T00:24:08.334Z,-1.18
2019-03-20T00:26:34.903Z,-1.14
2019-03-20T00:29:01.600Z,-1.11
2019-03-20T00:31:28.278Z,-1.11
2019-03-20T00:33:54.876Z,-1.18
2019-03-20T00:36:21.551Z,-1.24
2019-03-20T00:38:48.339Z,-1.30
2019-03-20T00:41:14.915Z,-1.28
2019-03-20T00:43:41.700Z,-1.25
2019-03-20T00:46:08.474Z,-1.31
2019-03-20T00:48:35.155Z,-1.42
2019-03-20T00:51:01.939Z,-1.47
2019-03-20T00:53:28.643Z,-1.49
2019-03-20T00:55:55.363Z,-1.52
2019-03-20T00:58:22.054Z,-1.47
2019-03-20T01:00:48.863Z,-1.19
2019-03-20T01:03:15.549Z,-1.01
2019-03-20T01:05:42.235Z,-0.97
2019-03-20T01:08:09.039Z,-1.05
2019-03-20T01:10:35.710Z,-1.06
2019-03-20T01:13:02.499Z,-1.00
2019-03-20T01:15:29.262Z,-1.06
2019-03-20T01:17:55.868Z,-1.21
2019-03-20T01:20:22.654Z,-1.31
2019-03-20T01:22:49.439Z,-1.39
2019-03-20T01:25:16.944Z,-1.39
2019-03-20T01:27:43.717Z,-1.33
2019-03-20T01:30:29.615Z,-1.12
2019-03-20T01:32:56.208Z,-1.00
2019-03-20T01:35:24.060Z,-0.96
2019-03-20T01:37:50.970Z,-1.01
2019-03-20T01:40:17.667Z,-0.28
2019-03-20T01:42:44.267Z,-0.44
2019-03-20T01:45:11.103Z,-0.79
2019-03-20T01:47:37.851Z,-1.01
2019-03-20T01:50:04.785Z,-1.06
2019-03-20T01:52:31.359Z,-1.18
2019-03-20T01:54:58.104Z,-1.08
2019-03-20T01:57:24.801Z,-1.14
2019-03-20T01:59:51.537Z,-1.00
2019-03-20T02:02:18.323Z,-1.17
2019-03-20T02:04:45.124Z,-1.12
2019-03-20T02:07:11.797Z,-1.11
2019-03-20T02:09:38.532Z,-1.14
2019-03-20T02:12:05.299Z,-1.13
2019-03-20T02:14:45.791Z,-1.22
2019-03-20T02:17:16.000Z,-1.30
2019-03-20T02:19:42.931Z,-1.34
2019-03-20T02:22:09.705Z,-1.19
2019-03-20T02:24:36.506Z,-1.27
2019-03-20T02:27:03.272Z,-1.29
2019-03-20T02:29:29.962Z,-1.12
2019-03-20T02:31:56.540Z,-0.95
2019-03-20T02:34:23.138Z,-0.75
2019-03-20T02:36:49.727Z,-0.66
2019-03-20T02:39:16.332Z,-0.72
2019-03-20T02:41:43.009Z,-0.78
2019-03-20T02:44:09.799Z,-0.85
2019-03-20T02:46:36.384Z,-0.84
2019-03-20T02:49:03.186Z,-0.82
2019-03-20T02:51:29.862Z,-0.89
2019-03-20T02:53:56.554Z,-0.97
2019-03-20T02:56:23.690Z,-0.91
2019-03-20T02:58:50.289Z,-0.93
2019-03-20T03:01:16.981Z,-1.03
2019-03-20T03:03:43.550Z,-1.09
2019-03-20T03:06:10.226Z,-1.13
2019-03-20T03:08:36.992Z,-1.00
2019-03-20T03:11:03.807Z,-1.11
2019-03-20T03:13:30.376Z,-1.23
2019-03-20T03:15:57.066Z,-1.34
2019-03-20T03:18:23.778Z,-1.29
2019-03-20T03:20:50.447Z,-1.08
2019-03-20T03:23:17.397Z,-0.62
2019-03-20T03:25:44.098Z,-0.71
2019-03-20T03:28:10.767Z,-0.92
2019-03-20T03:30:37.479Z,-0.98
2019-03-20T03:33:04.353Z,-1.05
2019-03-20T03:35:31.149Z,-1.06
2019-03-20T03:37:57.945Z,-1.09
2019-03-20T03:40:26.536Z,-0.77
2019-03-20T03:42:53.338Z,-0.80
2019-03-20T03:45:20.184Z,-0.48
2019-03-20T03:47:47.006Z,-0.76
2019-03-20T03:50:13.936Z,-0.98
2019-03-20T03:52:41.141Z,-1.06
2019-03-20T03:55:27.592Z,-0.63
2019-03-20T03:57:54.535Z,-0.84
2019-03-20T04:00:21.378Z,-1.07
2019-03-20T04:02:48.154Z,-1.27
2019-03-20T04:05:14.966Z,-1.37
2019-03-20T04:07:41.751Z,-1.23
2019-03-20T04:10:09.467Z,-1.22
2019-03-20T04:12:36.152Z,-1.34
2019-03-20T04:15:03.474Z,-1.37
2019-03-20T04:17:30.249Z,-1.43
2019-03-20T04:19:57.265Z,-1.25
2019-03-20T04:22:24.058Z,-1.01
2019-03-20T04:24:50.760Z,-0.95
2019-03-20T04:27:17.535Z,-1.03
2019-03-20T04:29:44.308Z,-1.00
2019-03-20T04:32:11.522Z,-1.02
2019-03-20T04:34:38.192Z,-0.92
2019-03-20T04:37:04.992Z,-0.88
2019-03-20T04:39:31.670Z,-1.06
2019-03-20T04:41:58.267Z,-1.16
2019-03-20T04:44:24.836Z,-1.27
2019-03-20T04:46:51.539Z,-1.20
2019-03-20T04:49:18.232Z,-0.80
2019-03-20T04:51:45.028Z,-0.63
2019-03-20T04:54:11.609Z,-0.66
2019-03-20T04:56:38.331Z,-0.66
2019-03-20T04:59:05.023Z,-0.85
2019-03-20T05:01:31.720Z,-0.97
2019-03-20T05:03:58.498Z,-1.02
2019-03-20T05:06:25.199Z,-2.83
2019-03-20T05:08:51.870Z,-1.06
2019-03-20T05:11:18.657Z,-1.12
2019-03-20T05:13:45.363Z,-1.17
2019-03-20T05:16:12.055Z,-1.15
2019-03-20T05:18:38.629Z,-1.20
2019-03-20T05:21:05.445Z,-1.22
2019-03-20T05:23:32.025Z,-1.22
2019-03-20T05:25:58.619Z,-1.16
2019-03-20T05:28:25.196Z,-1.17
2019-03-20T05:30:51.926Z,-1.08
2019-03-20T05:33:18.586Z,-1.10
2019-03-20T05:35:45.171Z,-1.07
2019-03-20T05:38:11.837Z,-1.01
2019-03-20T05:40:38.512Z,-0.94
2019-03-20T05:43:05.216Z,-0.90
2019-03-20T05:45:31.991Z,-0.90
2019-03-20T05:47:58.687Z,-0.81
2019-03-20T05:50:25.261Z,-0.79
2019-03-20T05:52:51.853Z,-0.63
2019-03-20T05:55:18.534Z,-0.61
2019-03-20T05:57:45.230Z,-0.45
2019-03-20T06:00:12.741Z,-0.45
2019-03-20T06:02:41.834Z,-0.40
2019-03-20T06:05:08.605Z,-0.35
2019-03-20T06:07:35.196Z,-0.28
2019-03-20T06:10:01.982Z,-0.25
2019-03-20T06:12:28.674Z,-0.23
2019-03-20T06:14:55.344Z,-0.21
2019-03-20T06:17:22.027Z,0.02
2019-03-20T06:19:48.696Z,0.25
2019-03-20T06:22:15.403Z,0.45
2019-03-20T06:24:42.085Z,0.51
2019-03-20T06:27:08.783Z,0.51
2019-03-20T06:29:35.441Z,0.61
2019-03-20T06:32:02.162Z,0.99
2019-03-20T06:34:28.842Z,1.04
2019-03-20T06:36:55.456Z,0.96
2019-03-20T06:39:22.125Z,1.00
2019-03-20T06:41:48.810Z,0.95
2019-03-20T06:44:15.391Z,1.09
2019-03-20T06:46:42.086Z,1.43
2019-03-20T06:49:08.864Z,2.42
2019-03-20T06:51:35.451Z,4.05
2019-03-20T06:54:02.120Z,5.98
2019-03-20T06:56:28.839Z,7.87
2019-03-20T06:59:48.569Z,9.74
2019-03-20T07:02:15.361Z,11.41
2019-03-20T07:05:05.779Z,12.41
2019-03-20T07:07:44.147Z,13.00
2019-03-20T07:10:21.168Z,13.11
2019-03-20T07:12:47.975Z,10.96
2019-03-20T07:15:14.635Z,9.04
2019-03-20T07:17:41.241Z,8.70
2019-03-20T07:20:08.800Z,9.02
2019-03-20T07:22:35.438Z,9.32
2019-03-20T07:25:02.519Z,9.38
2019-03-20T07:27:29.211Z,9.58
2019-03-20T07:29:55.878Z,10.35
2019-03-20T07:32:22.581Z,11.29
2019-03-20T07:34:49.249Z,12.65
2019-03-20T07:37:15.927Z,14.67
2019-03-20T07:39:42.542Z,16.84
2019-03-20T07:42:09.183Z,17.92
2019-03-20T07:44:35.871Z,19.61
2019-03-20T07:47:02.554Z,17.84
2019-03-20T07:49:29.340Z,19.27
2019-03-20T07:51:56.027Z,20.51
2019-03-20T07:54:22.733Z,17.66
2019-03-20T07:56:49.329Z,20.19
2019-03-20T07:59:15.917Z,22.14
2019-03-20T08:01:42.597Z,22.53
2019-03-20T08:04:09.383Z,23.46
2019-03-20T08:06:36.051Z,21.53
2019-03-20T08:09:05.710Z,17.28
2019-03-20T08:11:32.387Z,19.66
2019-03-20T08:13:58.973Z,19.61
2019-03-20T08:16:25.648Z,21.04
2019-03-20T08:18:52.454Z,21.78
2019-03-20T08:21:19.330Z,21.86
2019-03-20T08:23:45.959Z,19.63
2019-03-20T08:26:12.704Z,21.07
2019-03-20T08:28:39.736Z,19.96
2019-03-20T08:31:06.496Z,19.74
2019-03-20T08:33:33.216Z,17.60
2019-03-20T08:35:59.785Z,17.57
2019-03-20T08:38:26.479Z,18.31
2019-03-20T08:40:53.147Z,19.48
2019-03-20T08:43:19.761Z,20.09
2019-03-20T08:45:46.428Z,18.50
2019-03-20T08:48:13.134Z,19.43
2019-03-20T08:50:39.906Z,19.84
2019-03-20T08:53:06.712Z,18.31
2019-03-20T08:55:33.461Z,20.10
2019-03-20T08:58:00.209Z,19.42
2019-03-20T09:00:27.004Z,18.18
2019-03-20T09:02:53.836Z,17.37
2019-03-20T09:05:20.625Z,15.47
2019-03-20T09:07:47.935Z,15.82
2019-03-20T09:10:16.606Z,18.07
2019-03-20T09:12:43.391Z,18.65
2019-03-20T09:15:11.365Z,18.42
2019-03-20T09:17:38.038Z,18.48
2019-03-20T09:20:05.303Z,18.01
2019-03-20T09:22:31.983Z,17.89
2019-03-20T09:24:58.785Z,17.35
2019-03-20T09:27:25.373Z,18.83
2019-03-20T09:29:51.976Z,17.62
2019-03-20T09:32:18.671Z,18.29
2019-03-20T09:34:45.470Z,18.81
2019-03-20T09:37:12.055Z,18.57
2019-03-20T09:39:38.733Z,18.61
2019-03-20T09:42:05.497Z,17.86
2019-03-20T09:44:32.195Z,16.95
2019-03-20T09:46:58.962Z,17.06
2019-03-20T09:49:25.551Z,18.57
2019-03-20T09:51:52.321Z,18.14
2019-03-20T09:54:19.116Z,19.97
2019-03-20T09:56:45.913Z,18.11
2019-03-20T09:59:12.704Z,16.83
2019-03-20T10:01:39.282Z,16.89
2019-03-20T10:04:06.071Z,17.52
2019-03-20T10:06:32.736Z,17.27
2019-03-20T10:09:01.863Z,18.18
2019-03-20T10:11:27.894Z,20.39
2019-03-20T10:13:54.474Z,20.11
2019-03-20T10:16:21.133Z,20.80
2019-03-20T10:18:47.815Z,20.60
2019-03-20T10:21:14.377Z,20.65
2019-03-20T10:23:40.970Z,20.27
2019-03-20T10:26:07.658Z,17.65
2019-03-20T10:28:34.806Z,18.26
2019-03-20T10:31:01.503Z,17.47
2019-03-20T10:33:28.076Z,18.48
2019-03-20T10:35:54.748Z,18.23
2019-03-20T10:38:21.314Z,19.80
2019-03-20T10:40:47.996Z,19.71
2019-03-20T10:43:14.650Z,19.14
2019-03-20T10:45:41.443Z,20.71
2019-03-20T10:48:08.113Z,19.84
2019-03-20T10:50:34.809Z,18.96
2019-03-20T10:53:01.588Z,19.34
2019-03-20T10:55:28.366Z,18.90
2019-03-20T10:57:55.002Z,19.03
2019-03-20T11:00:21.886Z,20.00
2019-03-20T11:02:48.671Z,21.01
2019-03-20T11:05:15.631Z,21.19
2019-03-20T11:07:42.310Z,21.82
2019-03-20T11:10:10.003Z,22.59
2019-03-20T11:12:36.667Z,23.25
2019-03-20T11:15:04.886Z,21.56
2019-03-20T11:17:31.539Z,20.72
2019-03-20T11:19:58.141Z,18.83
2019-03-20T11:22:24.906Z,18.59
2019-03-20T11:24:51.730Z,20.62
2019-03-20T11:27:18.411Z,19.00
2019-03-20T11:29:45.134Z,17.40
2019-03-20T11:32:14.334Z,17.25
2019-03-20T11:34:40.889Z,18.11
2019-03-20T11:37:07.554Z,17.60
2019-03-20T11:39:34.377Z,19.46
2019-03-20T11:42:01.461Z,21.23
2019-03-20T11:44:28.055Z,22.88
2019-03-20T11:46:54.859Z,20.48
2019-03-20T11:49:21.687Z,18.82
2019-03-20T11:51:48.384Z,18.97
2019-03-20T11:54:14.979Z,18.80
2019-03-20T11:56:41.789Z,17.39
2019-03-20T11:59:08.458Z,16.78
2019-03-20T12:01:35.256Z,16.29
2019-03-20T12:04:02.019Z,15.21
2019-03-20T12:06:28.742Z,14.86
2019-03-20T12:08:55.312Z,14.90
2019-03-20T12:11:21.954Z,14.51
2019-03-20T12:13:48.733Z,14.43
2019-03-20T12:16:15.427Z,14.47
2019-03-20T12:18:42.023Z,14.20
2019-03-20T12:21:08.821Z,14.17
2019-03-20T12:23:35.504Z,14.19
2019-03-20T12:26:02.289Z,13.96
2019-03-20T12:28:28.901Z,14.49
2019-03-20T12:30:55.565Z,14.84
2019-03-20T12:33:22.256Z,14.53
2019-03-20T12:35:49.055Z,15.41
2019-03-20T12:38:15.839Z,15.97
2019-03-20T12:40:42.613Z,15.27
2019-03-20T12:43:09.414Z,14.36
2019-03-20T12:45:36.214Z,14.29
2019-03-20T12:48:04.871Z,14.92
2019-03-20T12:50:31.650Z,15.85
2019-03-20T12:52:58.472Z,14.95
2019-03-20T12:55:25.240Z,14.71
2019-03-20T12:57:52.081Z,14.88
2019-03-20T13:00:20.228Z,14.96
2019-03-20T13:02:47.015Z,15.21
2019-03-20T13:05:13.975Z,14.66
2019-03-20T13:07:40.755Z,14.98
2019-03-20T13:10:09.284Z,14.58
2019-03-20T13:12:35.961Z,14.31
2019-03-20T13:15:03.405Z,14.11
2019-03-20T13:17:30.205Z,13.66
2019-03-20T13:19:56.902Z,13.61
2019-03-20T13:22:24.878Z,13.62
2019-03-20T13:24:51.644Z,13.69
2019-03-20T13:27:18.339Z,13.81
2019-03-20T13:29:45.009Z,13.46
2019-03-20T13:32:11.801Z,13.31
2019-03-20T13:34:38.598Z,13.36
2019-03-20T13:37:05.395Z,13.36
2019-03-20T13:39:31.965Z,13.41
2019-03-20T13:42:00.873Z,13.31
2019-03-20T13:44:27.444Z,13.61
2019-03-20T13:46:54.272Z,13.48
2019-03-20T13:49:20.947Z,13.55
2019-03-20T13:51:47.669Z,13.64
2019-03-20T13:54:14.234Z,13.86
2019-03-20T13:56:41.024Z,13.99
2019-03-20T13:59:07.717Z,14.05
2019-03-20T14:01:34.449Z,13.71
2019-03-20T14:04:01.260Z,13.52
2019-03-20T14:06:28.103Z,13.52
2019-03-20T14:08:54.892Z,13.31
2019-03-20T14:11:21.728Z,13.37
2019-03-20T14:13:48.417Z,13.09
2019-03-20T14:16:15.246Z,12.99
2019-03-20T14:18:42.017Z,13.11
2019-03-20T14:21:08.773Z,13.13
2019-03-20T14:23:35.462Z,13.37
2019-03-20T14:26:02.256Z,13.69
2019-03-20T14:28:28.863Z,13.96
2019-03-20T14:30:55.726Z,13.42
2019-03-20T14:33:22.517Z,13.32
2019-03-20T14:35:49.298Z,13.26
2019-03-20T14:38:15.992Z,13.18
2019-03-20T14:40:42.750Z,13.26
2019-03-20T14:43:09.631Z,13.28
2019-03-20T14:45:36.541Z,13.23
2019-03-20T14:48:04.150Z,13.24
2019-03-20T14:50:30.955Z,13.19
2019-03-20T14:52:57.754Z,13.31
2019-03-20T14:55:24.704Z,13.33
2019-03-20T14:57:51.459Z,13.45
2019-03-20T15:00:19.883Z,13.40
2019-03-20T15:02:46.712Z,13.23
2019-03-20T15:05:13.688Z,13.29
2019-03-20T15:07:40.489Z,13.63
2019-03-20T15:10:08.400Z,13.57
2019-03-20T15:12:35.175Z,13.61
2019-03-20T15:15:02.376Z,13.66
2019-03-20T15:17:29.178Z,13.86
2019-03-20T15:19:55.772Z,13.84
2019-03-20T15:22:22.558Z,13.80
2019-03-20T15:24:49.362Z,13.69
2019-03-20T15:27:16.072Z,13.40
2019-03-20T15:29:42.837Z,13.19
2019-03-20T15:32:09.616Z,13.34
2019-03-20T15:34:36.207Z,13.05
2019-03-20T15:37:03.376Z,13.25
2019-03-20T15:39:30.059Z,12.98
2019-03-20T15:41:56.739Z,12.87
2019-03-20T15:44:23.336Z,12.93
2019-03-20T15:46:50.118Z,13.04
2019-03-20T15:49:16.921Z,12.95
2019-03-20T15:51:43.592Z,12.92
2019-03-20T15:54:10.293Z,12.96
2019-03-20T15:56:37.082Z,12.72
2019-03-20T15:59:03.881Z,12.47
2019-03-20T16:01:30.554Z,12.47
2019-03-20T16:03:57.353Z,12.52
2019-03-20T16:06:24.129Z,12.57
2019-03-20T16:08:50.912Z,12.60
2019-03-20T16:11:17.591Z,12.49
2019-03-20T16:13:44.374Z,12.45
2019-03-20T16:16:11.047Z,12.28
2019-03-20T16:18:37.843Z,12.25
2019-03-20T16:21:04.645Z,12.32
2019-03-20T16:23:31.364Z,12.40
2019-03-20T16:26:00.903Z,12.50
2019-03-20T16:28:27.600Z,12.50
2019-03-20T16:30:54.283Z,12.36
2019-03-20T16:33:20.957Z,12.39
2019-03-20T16:35:47.653Z,12.45
2019-03-20T16:38:14.321Z,12.46
2019-03-20T16:40:40.999Z,12.38
2019-03-20T16:43:07.582Z,12.29
2019-03-20T16:45:34.367Z,12.32
2019-03-20T16:48:01.136Z,12.28
2019-03-20T16:50:28.055Z,12.21
2019-03-20T16:52:54.814Z,12.17
2019-03-20T16:55:21.592Z,12.16
2019-03-20T16:57:48.286Z,12.13
2019-03-20T17:00:22.638Z,12.13
2019-03-20T17:02:49.445Z,12.11
2019-03-20T17:05:16.450Z,12.22
2019-03-20T17:07:43.190Z,12.23
2019-03-20T17:10:15.552Z,12.12
2019-03-20T17:12:42.306Z,12.05
2019-03-20T17:15:13.132Z,12.04
2019-03-20T17:17:39.811Z,11.97
2019-03-20T17:20:06.721Z,11.94
2019-03-20T17:22:41.777Z,11.78
2019-03-20T17:25:02.133Z,11.70
2019-03-20T17:27:28.862Z,11.62
2019-03-20T17:29:55.767Z,11.56
2019-03-20T17:32:22.548Z,11.45
2019-03-20T17:34:49.250Z,11.39
2019-03-20T17:37:16.092Z,11.32
2019-03-20T17:39:42.881Z,11.27
2019-03-20T17:42:09.586Z,11.24
2019-03-20T17:44:36.257Z,11.28
2019-03-20T17:47:03.060Z,11.26
2019-03-20T17:49:29.720Z,11.19
2019-03-20T17:51:56.560Z,11.09
2019-03-20T17:54:23.235Z,11.13
2019-03-20T17:56:49.975Z,11.07
2019-03-20T17:59:16.636Z,10.97
2019-03-20T18:01:43.348Z,10.97
2019-03-20T18:04:10.008Z,10.89
2019-03-20T18:06:36.791Z,10.72
2019-03-20T18:09:06.532Z,10.68
2019-03-20T18:11:33.245Z,10.71
2019-03-20T18:13:59.918Z,10.71
2019-03-20T18:16:26.602Z,10.69
2019-03-20T18:18:53.195Z,10.70
2019-03-20T18:21:19.888Z,10.76
2019-03-20T18:23:46.445Z,10.68
2019-03-20T18:26:13.251Z,10.73
2019-03-20T18:28:39.820Z,10.73
2019-03-20T18:31:06.538Z,10.70
2019-03-20T18:33:33.077Z,10.73
2019-03-20T18:35:59.866Z,10.75
2019-03-20T18:38:26.532Z,10.74
2019-03-20T18:40:53.220Z,10.78
2019-03-20T18:43:20.006Z,10.84
2019-03-20T18:45:46.678Z,10.81
2019-03-20T18:48:13.340Z,10.70
2019-03-20T18:50:40.145Z,10.77
2019-03-20T18:53:06.906Z,10.79
2019-03-20T18:55:33.619Z,10.73
2019-03-20T18:58:00.393Z,10.72
2019-03-20T19:00:27.186Z,10.64
2019-03-20T19:02:54.638Z,10.57
2019-03-20T19:05:27.983Z,10.55
2019-03-20T19:07:54.891Z,10.54
2019-03-20T19:10:21.749Z,10.48
2019-03-20T19:12:48.494Z,10.34
2019-03-20T19:15:15.444Z,10.36
2019-03-20T19:17:42.142Z,10.18
2019-03-20T19:20:09.284Z,10.17
2019-03-20T19:22:36.050Z,10.11
2019-03-20T19:25:03.931Z,10.14
2019-03-20T19:27:30.714Z,10.15
2019-03-20T19:29:57.410Z,10.10
2019-03-20T19:32:24.117Z,10.02
2019-03-20T19:34:50.796Z,10.15
2019-03-20T19:37:17.374Z,10.05
2019-03-20T19:39:43.937Z,9.97
2019-03-20T19:42:19.595Z,9.96
2019-03-20T19:44:39.089Z,9.91
2019-03-20T19:47:05.784Z,9.75
2019-03-20T19:49:32.372Z,9.63
2019-03-20T19:51:59.069Z,9.72
2019-03-20T19:54:25.638Z,9.59
2019-03-20T19:56:53.180Z,9.44
2019-03-20T19:59:19.859Z,9.44
2019-03-20T20:01:46.667Z,9.42
2019-03-20T20:04:13.358Z,9.20
2019-03-20T20:06:40.041Z,9.08
2019-03-20T20:09:06.790Z,8.69
2019-03-20T20:11:33.635Z,8.57
2019-03-20T20:14:00.413Z,8.52
2019-03-20T20:16:27.088Z,8.28
2019-03-20T20:18:53.874Z,8.10
2019-03-20T20:21:20.629Z,7.95
2019-03-20T20:23:47.419Z,8.00
2019-03-20T20:26:14.190Z,7.92
2019-03-20T20:28:40.973Z,8.01
2019-03-20T20:31:07.748Z,7.96
2019-03-20T20:33:34.312Z,7.85
2019-03-20T20:36:00.976Z,7.83
2019-03-20T20:38:27.562Z,7.88
2019-03-20T20:40:54.228Z,8.11
2019-03-20T20:43:21.011Z,8.40
2019-03-20T20:45:47.607Z,8.52
2019-03-20T20:48:14.380Z,8.62
2019-03-20T20:50:41.072Z,8.57
2019-03-20T20:53:07.745Z,8.48
2019-03-20T20:55:35.000Z,8.47
2019-03-20T20:58:01.699Z,8.50
2019-03-20T21:00:28.362Z,8.46
2019-03-20T21:02:55.147Z,8.46
2019-03-20T21:05:21.923Z,8.78
2019-03-20T21:07:48.742Z,8.49
2019-03-20T21:10:15.422Z,8.42
2019-03-20T21:12:42.790Z,8.31
2019-03-20T21:15:21.454Z,8.28
2019-03-20T21:18:12.352Z,8.23
2019-03-20T21:20:38.979Z,8.31
2019-03-20T21:23:53.566Z,8.23
2019-03-20T21:26:20.805Z,8.00
2019-03-20T21:29:14.431Z,7.92
2019-03-20T21:31:55.035Z,7.75
2019-03-20T21:34:57.147Z,7.68
2019-03-20T21:38:04.984Z,7.63
2019-03-20T21:40:40.100Z,7.85
2019-03-20T21:43:43.317Z,7.79
2019-03-20T21:46:59.851Z,7.42
2019-03-20T21:49:27.072Z,7.46
2019-03-20T21:51:54.416Z,7.32
2019-03-20T21:55:18.166Z,7.39
2019-03-20T21:57:59.612Z,7.53
2019-03-20T22:01:23.373Z,7.62
2019-03-20T22:03:50.713Z,7.46
2019-03-20T22:06:54.352Z,7.28
2019-03-20T22:09:51.144Z,7.22
2019-03-20T22:12:28.586Z,7.14
2019-03-20T22:15:01.142Z,7.03
2019-03-20T22:18:21.782Z,7.00
2019-03-20T22:20:57.192Z,6.91
2019-03-20T22:24:04.727Z,7.08
2019-03-20T22:27:21.646Z,7.06
2019-03-20T22:29:48.866Z,7.01
2019-03-20T22:33:08.538Z,6.91
2019-03-20T22:35:45.254Z,6.77
2019-03-20T22:38:33.719Z,6.58
2019-03-20T22:41:48.058Z,6.43
2019-03-20T22:44:15.274Z,6.27
2019-03-20T22:47:22.414Z,6.11
2019-03-20T22:50:23.132Z,6.01
2019-03-20T22:53:29.163Z,5.91
2019-03-20T22:56:33.526Z,5.88
2019-03-20T22:59:00.909Z,5.90
2019-03-20T23:01:55.566Z,6.00
2019-03-20T23:04:27.543Z,6.18
2019-03-20T23:06:54.847Z,6.54
2019-03-20T23:09:22.187Z,6.83
2019-03-20T23:11:49.584Z,6.92
2019-03-20T23:14:16.911Z,7.14
2019-03-20T23:16:44.218Z,7.08
2019-03-20T23:19:11.567Z,7.14
2019-03-20T23:21:38.863Z,7.24
2019-03-20T23:24:06.187Z,7.30
2019-03-20T23:26:33.530Z,7.35
2019-03-20T23:29:00.904Z,7.43
2019-03-20T23:31:28.202Z,7.60
2019-03-20T23:33:55.418Z,7.75
2019-03-20T23:36:22.949Z,7.62
2019-03-20T23:38:50.249Z,7.65
2019-03-20T23:41:17.604Z,7.59
2019-03-20T23:43:52.849Z,7.60
2019-03-20T23:46:14.131Z,7.64
2019-03-20T23:48:50.993Z,7.55
2019-03-20T23:51:19.596Z,7.70
2019-03-20T23:53:51.836Z,7.38
2019-03-20T23:56:19.231Z,7.44
2019-03-20T23:58:46.375Z,7.40
